createdAt,value
2023-05-19T00:01:53.121Z,91236.22
2023-05-19T00:04:56.642Z,91224.31
2023-05-19T00:08:01.943Z,91220.78
2023-05-19T00:11:05.512Z,91212.66
2023-05-19T00:14:10.876Z,91220.13
2023-05-19T00:17:15.102Z,91203.53
2023-05-19T00:20:18.485Z,91201.22
2023-05-19T00:23:21.744Z,91194.53
2023-05-19T00:26:27.950Z,91209.59
2023-05-19T00:29:36.514Z,91212.44
2023-05-19T00:32:40.008Z,91206.78
2023-05-19T00:35:43.942Z,91194.53
2023-05-19T00:38:47.209Z,91199.88
2023-05-19T00:41:50.702Z,91199.19
2023-05-19T00:44:54.578Z,91187.59
2023-05-19T00:47:58.452Z,91184.50
2023-05-19T00:51:07.244Z,91186.47
2023-05-19T00:54:11.042Z,91195.91
2023-05-19T00:57:15.804Z,91187.38
2023-05-19T01:00:19.153Z,91196.34
2023-05-19T01:03:23.957Z,91177.44
2023-05-19T01:06:28.778Z,91180.44
2023-05-19T01:09:32.968Z,91188.66
2023-05-19T01:12:37.663Z,91189.91
2023-05-19T01:16:19.860Z,91211.91
2023-05-19T01:19:37.738Z,91183.31
2023-05-19T01:23:03.566Z,91192.72
2023-05-19T01:26:48.029Z,91192.94
2023-05-19T01:30:28.933Z,91198.38
2023-05-19T01:33:34.757Z,91202.66
2023-05-19T01:36:39.596Z,91207.44
2023-05-19T01:39:44.211Z,91204.19
2023-05-19T01:42:48.144Z,91211.69
2023-05-19T01:45:52.801Z,91194.72
2023-05-19T01:48:57.942Z,91194.53
2023-05-19T01:52:02.015Z,91196.72
2023-05-19T01:55:06.192Z,91177.00
2023-05-19T01:58:27.767Z,91176.44
2023-05-19T02:01:38.955Z,91183.00
2023-05-19T02:04:46.426Z,91190.31
2023-05-19T02:07:59.746Z,91214.63
2023-05-19T02:11:08.838Z,91203.53
2023-05-19T02:14:21.863Z,91207.69
2023-05-19T02:17:30.340Z,91212.84
2023-05-19T02:20:34.876Z,91228.88
2023-05-19T02:23:38.104Z,91246.28
2023-05-19T02:26:41.784Z,91250.84
2023-05-19T02:29:45.458Z,91249.06
2023-05-19T02:32:48.881Z,91248.19
2023-05-19T02:35:52.327Z,91253.91
2023-05-19T02:38:55.721Z,91249.44
2023-05-19T02:41:59.001Z,91246.56
2023-05-19T02:45:02.731Z,91265.28
2023-05-19T02:48:06.736Z,91281.38
2023-05-19T02:51:10.454Z,91277.38
2023-05-19T02:54:13.911Z,91290.41
2023-05-19T02:57:17.529Z,91285.72
2023-05-19T03:00:20.891Z,91222.69
2023-05-19T03:03:24.653Z,91285.41
2023-05-19T03:06:28.437Z,91280.44
2023-05-19T03:09:32.248Z,91284.22
2023-05-19T03:12:35.680Z,91282.31
2023-05-19T03:15:39.252Z,91277.22
2023-05-19T03:18:42.874Z,91276.72
2023-05-19T03:21:47.343Z,91294.06
2023-05-19T03:24:51.806Z,91273.84
2023-05-19T03:27:55.249Z,91280.81
2023-05-19T03:30:58.631Z,91273.38
2023-05-19T03:34:06.038Z,91283.19
2023-05-19T03:37:11.391Z,91279.03
2023-05-19T03:40:19.457Z,91274.25
2023-05-19T03:43:24.209Z,91285.50
2023-05-19T03:46:34.387Z,91263.34
2023-05-19T03:49:54.633Z,91265.56
2023-05-19T03:53:20.461Z,91268.88
2023-05-19T03:56:25.778Z,91260.97
2023-05-19T03:59:29.466Z,91255.78
2023-05-19T04:02:33.063Z,91250.16
2023-05-19T04:05:36.551Z,91256.88
2023-05-19T04:08:40.783Z,91256.75
2023-05-19T04:11:44.324Z,91242.06
2023-05-19T04:14:47.514Z,91236.75
2023-05-19T04:17:50.895Z,91222.72
2023-05-19T04:20:54.833Z,91219.28
2023-05-19T04:23:59.911Z,91227.66
2023-05-19T04:27:05.376Z,91221.94
2023-05-19T04:30:09.406Z,91232.25
2023-05-19T04:33:13.889Z,91222.34
2023-05-19T04:36:22.094Z,91225.66
2023-05-19T04:39:27.985Z,91233.19
2023-05-19T04:42:33.722Z,91206.88
2023-05-19T04:45:38.960Z,91228.53
2023-05-19T04:48:43.534Z,91236.66
2023-05-19T04:51:51.530Z,91223.38
2023-05-19T04:55:00.663Z,91220.34
2023-05-19T04:58:05.681Z,91241.06
2023-05-19T05:01:10.305Z,91233.44
2023-05-19T05:04:13.913Z,91272.09
2023-05-19T05:07:18.358Z,91246.16
2023-05-19T05:10:22.584Z,91249.25
2023-05-19T05:13:26.702Z,91242.16
2023-05-19T05:16:30.967Z,91250.00
2023-05-19T05:19:35.213Z,91229.69
2023-05-19T05:22:39.576Z,91243.34
2023-05-19T05:25:45.638Z,91244.63
2023-05-19T05:28:51.431Z,91248.00
2023-05-19T05:31:54.865Z,91252.88
2023-05-19T05:34:59.760Z,91255.06
2023-05-19T05:38:04.431Z,91246.41
2023-05-19T05:41:08.113Z,91254.03
2023-05-19T05:44:13.551Z,91252.19
2023-05-19T05:47:19.906Z,91264.06
2023-05-19T05:50:23.971Z,91253.09
2023-05-19T05:53:32.961Z,91256.13
2023-05-19T05:56:38.113Z,91249.09
2023-05-19T05:59:46.119Z,91236.88
2023-05-19T06:02:51.983Z,91251.06
2023-05-19T06:05:56.212Z,91246.41
2023-05-19T06:08:59.586Z,91266.41
2023-05-19T06:12:04.275Z,91265.53
2023-05-19T06:15:12.634Z,91274.66
2023-05-19T06:18:45.006Z,91273.75
2023-05-19T06:21:48.304Z,91269.81
2023-05-19T06:24:51.899Z,91281.97
2023-05-19T06:27:55.878Z,91283.38
2023-05-19T06:31:00.776Z,91272.69
2023-05-19T06:34:26.430Z,91284.56
2023-05-19T06:37:30.068Z,91286.84
2023-05-19T06:40:33.641Z,91278.50
2023-05-19T06:43:37.386Z,91289.41
2023-05-19T06:46:40.623Z,91278.16
2023-05-19T06:49:51.891Z,91273.88
2023-05-19T06:52:55.181Z,91277.44
2023-05-19T06:56:00.047Z,91276.53
2023-05-19T06:59:08.104Z,91289.31
2023-05-19T07:02:13.739Z,91283.41
2023-05-19T07:05:17.428Z,91304.31
2023-05-19T07:08:28.614Z,91299.50
2023-05-19T07:11:33.882Z,91302.84
2023-05-19T07:14:39.559Z,91300.69
2023-05-19T07:17:43.257Z,91304.66
2023-05-19T07:20:46.724Z,91307.00
2023-05-19T07:23:50.059Z,91298.38
2023-05-19T07:26:53.369Z,91300.75
2023-05-19T07:29:56.648Z,91310.69
2023-05-19T07:32:59.897Z,91307.66
2023-05-19T07:36:03.239Z,91302.81
2023-05-19T07:39:06.856Z,91306.31
2023-05-19T07:42:11.214Z,91300.03
2023-05-19T07:45:14.515Z,91309.38
2023-05-19T07:48:19.445Z,91297.34
2023-05-19T07:51:22.733Z,91310.78
2023-05-19T07:54:26.098Z,91314.03
2023-05-19T07:57:29.273Z,91321.53
2023-05-19T08:00:33.030Z,91331.84
2023-05-19T08:03:36.637Z,91322.06
2023-05-19T08:06:40.188Z,91325.97
2023-05-19T08:09:43.439Z,91319.50
2023-05-19T08:12:46.801Z,91334.00
2023-05-19T08:15:50.147Z,91328.84
2023-05-19T08:18:53.485Z,91347.59
2023-05-19T08:21:57.039Z,91339.66
2023-05-19T08:25:00.352Z,91338.53
2023-05-19T08:28:03.590Z,91362.66
2023-05-19T08:31:06.957Z,91379.00
2023-05-19T08:34:10.257Z,91374.50
2023-05-19T08:37:14.000Z,91391.88
2023-05-19T08:40:21.377Z,91385.56
2023-05-19T08:43:24.635Z,91394.84
2023-05-19T08:46:27.892Z,91390.16
2023-05-19T08:49:36.242Z,91399.75
2023-05-19T08:53:33.297Z,91407.66
2023-05-19T08:56:39.785Z,91426.66
2023-05-19T08:59:47.804Z,91425.34
2023-05-19T09:03:00.801Z,91425.69
2023-05-19T09:06:14.851Z,91421.06
2023-05-19T09:09:18.154Z,91421.63
2023-05-19T09:12:22.070Z,91429.16
2023-05-19T09:15:29.107Z,91440.34
2023-05-19T09:18:32.575Z,91451.88
2023-05-19T09:21:35.771Z,91439.97
2023-05-19T09:24:41.089Z,91426.03
2023-05-19T09:27:44.408Z,91449.06
2023-05-19T09:30:47.697Z,91444.56
2023-05-19T09:33:54.865Z,91455.13
2023-05-19T09:37:00.436Z,91460.38
2023-05-19T09:40:06.119Z,91466.94
2023-05-19T09:43:09.809Z,91469.97
2023-05-19T09:46:14.577Z,91479.72
2023-05-19T09:49:33.399Z,91473.41
2023-05-19T09:52:41.390Z,91480.47
2023-05-19T09:55:44.674Z,91473.25
2023-05-19T09:58:49.332Z,91481.59
2023-05-19T10:01:57.494Z,91492.94
2023-05-19T10:05:01.933Z,91489.28
2023-05-19T10:08:07.962Z,91495.75
2023-05-19T10:11:12.086Z,91509.72
2023-05-19T10:14:16.253Z,91506.09
2023-05-19T10:17:19.694Z,91502.66
2023-05-19T10:20:24.180Z,91525.34
